Latest Weather Observations for Mt Wellington

IDT60901

Issued at 5:31 pm EDT Saturday 20 December 2014 (issued every 10 minutes, with the page automatically refreshed every 10 minutes)

About weather observations | Map of Hobart area stations | Latest observations for Hobart area | Other Formats
Station Details ID: 094087 Name: MOUNT WELLINGTON Lat: -42.90 Lon: 147.24 Height: 1260.47 m
Data from the previous 72 hours. | See also: Recent months at Mt Wellington
Date/Time
EDT
Tmp

°C
App
Tmp
°C
Dew
Point
°C
Rel
Hum
%
Delta-T

°C
Wind Press
QNH
hPa
Press
MSL
hPa
Rain
since
9 am
mm
Dir
 
Spd
km/h
Gust
km/h
Spd
kts
Gust
kts
20/05:30pm 9.3 3.5 2.2 61 3.2 WSW 22 32 12 17 - - 0.2
20/05:00pm 10.1 4.1 3.4 63 3.1 WSW 24 35 13 19 - - 0.2
20/04:30pm 9.9 4.7 3.4 64 3.1 WSW 20 32 11 17 - - 0.2
20/04:00pm 11.0 5.8 3.8 61 3.4 WSW 20 28 11 15 - - 0.2
20/03:30pm 10.5 5.2 2.8 59 3.6 WSW 20 35 11 19 - - 0.2
20/03:00pm 10.8 4.8 3.6 61 3.4 WSW 24 33 13 18 - - 0.2
20/02:30pm 10.1 3.5 4.0 66 2.9 WSW 28 37 15 20 - - 0.2
20/02:00pm 10.4 4.2 4.5 67 2.8 WSW 26 33 14 18 - - 0.2
20/01:30pm 11.0 4.5 4.9 66 3.0 WSW 28 43 15 23 - - 0.2
20/01:00pm 10.1 1.3 3.6 64 3.1 WSW 39 50 21 27 - - 0.2
20/12:30pm 9.8 2.3 4.4 69 2.6 WSW 33 46 18 25 - - 0.2
20/12:00pm 8.6 1.0 3.8 72 2.2 WSW 33 46 18 25 - - 0.2
20/11:30am 8.7 0.8 4.1 73 2.2 WSW 35 46 19 25 - - 0.2
20/11:00am 7.2 -0.3 4.2 81 1.4 WSW 33 44 18 24 - - 0.2
20/10:30am 6.7 -0.5 5.7 93 0.5 WSW 33 50 18 27 - - 0.2
20/10:00am 5.8 -1.3 5.5 98 0.1 WSW 32 43 17 23 - - 0.2
20/09:30am 5.8 -0.2 5.5 98 0.1 WSW 26 39 14 21 - - 0.2
20/09:04am 5.7 -0.7 5.3 97 0.2 SW 28 46 15 25 - - 0.0
20/09:00am 5.8 -0.2 5.4 97 0.2 SW 26 39 14 21 - - 0.2
20/08:30am 6.3 -0.3 5.9 97 0.2 WSW 30 43 16 23 - - 0.0
20/08:00am 6.1 -2.3 5.5 96 0.3 WSW 39 52 21 28 - - 0.0
20/07:44am 6.3 -2.8 5.9 97 0.2 WSW 43 61 23 33 - - 0.0
20/07:30am 6.3 -2.0 6.0 98 0.1 WSW 39 56 21 30 - - 0.0
20/07:00am 6.2 -1.4 5.9 98 0.1 WSW 35 46 19 25 - - 0.0
20/06:30am 5.8 -3.0 5.4 97 0.2 WSW 41 56 22 30 - - 0.0
20/06:04am 6.0 -2.4 5.4 96 0.3 WSW 39 57 21 31 - - 0.0
20/05:47am 5.8 -3.1 5.2 96 0.3 W 41 59 22 32 - - 0.0
20/05:30am 5.9 -3.6 5.0 94 0.4 W 44 61 24 33 - - 0.0
20/05:00am 6.0 -5.3 5.3 95 0.3 W 54 67 29 36 - - 0.0
20/04:30am 5.6 -5.8 5.0 96 0.3 W 54 76 29 41 - - 0.0
20/04:00am 5.4 -5.6 5.1 98 0.1 W 52 74 28 40 - - 0.0
20/03:55am 5.3 -6.1 5.0 98 0.1 W 54 74 29 40 - - 0.0
20/03:30am 4.8 -6.7 4.5 98 0.1 W 54 70 29 38 - - 0.0
20/03:21am 4.6 -6.5 4.3 98 0.1 W 52 70 28 38 - - 0.0
20/03:00am 4.1 -7.5 3.8 98 0.1 W 54 69 29 37 - - 0.0
20/02:45am 3.9 -7.0 3.6 98 0.1 W 50 72 27 39 - - 0.0
20/02:30am 3.9 -7.8 3.6 98 0.1 W 54 67 29 36 - - 0.0
20/02:00am 3.3 -8.1 3.0 98 0.1 WNW 52 70 28 38 - - 0.0
20/01:36am 3.6 -8.1 3.3 98 0.1 W 54 74 29 40 - - 0.0
20/01:30am 3.6 -8.5 3.3 98 0.1 W 56 69 30 37 - - 0.0
20/01:00am 3.0 -8.1 2.7 98 0.1 WNW 50 61 27 33 - - 0.0
20/12:30am 2.4 -6.7 2.1 98 0.1 WNW 39 54 21 29 - - 0.0
20/12:00am 2.4 -6.3 2.0 97 0.2 NW 37 44 20 24 - - 0.0
 
Date/Time
EDT
Tmp

°C
App
Tmp
°C
Dew
Point
°C
Rel
Hum
%
Delta-T

°C
Wind Press
QNH
hPa
Press
MSL
hPa
Rain
since
9 am
mm
Dir
 
Spd
km/h
Gust
km/h
Spd
kts
Gust
kts
19/11:38pm 2.5 -5.5 1.9 96 0.3 WNW 33 54 18 29 - - 0.0
19/11:30pm 2.9 -6.5 2.3 96 0.3 WNW 41 54 22 29 - - 0.0
19/11:00pm 2.6 -5.7 1.9 95 0.3 WNW 35 44 19 24 - - 0.0
19/10:30pm 2.8 -5.0 1.8 93 0.4 W 32 43 17 23 - - 0.0
19/10:00pm 3.1 -3.6 1.5 89 0.7 WNW 26 37 14 20 - - 0.0
19/09:30pm 3.4 -3.0 1.0 84 1.0 WNW 24 32 13 17 - - 0.0
19/09:00pm 3.6 -2.8 0.7 81 1.2 W 24 32 13 17 - - 0.0
19/08:30pm 3.8 -2.3 0.7 80 1.3 W 22 28 12 15 - - 0.0
19/08:00pm 4.0 -2.1 0.2 76 1.6 WNW 22 32 12 17 - - 0.0
19/07:30pm 4.4 -1.3 0.4 75 1.7 W 20 26 11 14 - - 0.0
19/07:00pm 4.3 -2.2 0.6 77 1.5 W 24 32 13 17 - - 0.0
19/06:30pm 4.9 -1.7 -0.1 70 2.1 W 24 39 13 21 - - 0.0
19/06:00pm 5.6 -0.1 -0.4 65 2.5 W 19 24 10 13 - - 0.0
19/05:30pm 5.7 -0.4 0.1 67 2.3 W 22 30 12 16 - - 0.0
19/05:00pm 5.8 -0.1 -0.5 64 2.6 WSW 20 32 11 17 - - 0.0
19/04:30pm 6.1 0.8 -0.6 62 2.8 W 17 30 9 16 - - 0.0
19/04:00pm 6.8 1.5 -0.6 59 3.1 W 17 28 9 15 - - 0.0
19/03:30pm 6.5 0.9 0.0 63 2.7 WSW 19 32 10 17 - - 0.0
19/03:00pm 6.7 1.1 -0.3 61 2.9 WSW 19 32 10 17 - - 0.0
19/02:30pm 7.8 2.7 1.0 62 3.0 WSW 17 28 9 15 - - 0.0
19/02:00pm 6.7 2.4 0.8 66 2.5 W 13 22 7 12 - - 0.0
19/01:30pm 7.3 1.8 0.3 61 3.0 W 19 30 10 16 - - 0.0
19/01:00pm 5.6 0.7 3.9 89 0.8 WSW 19 30 10 16 - - 0.0
19/12:30pm 6.9 2.0 2.0 71 2.2 WSW 17 28 9 15 - - 0.0
19/12:00pm 5.5 0.6 2.2 79 1.4 WSW 17 26 9 14 - - 0.0
19/11:30am 3.8 -2.1 1.5 85 1.0 WSW 22 32 12 17 - - 0.0
19/11:00am 5.0 -0.5 0.4 72 1.9 WSW 19 33 10 18 - - 0.0
19/10:30am 3.7 -1.6 1.6 86 0.9 W 19 30 10 16 - - 0.0
19/10:00am 2.2 -4.5 1.2 93 0.4 WSW 26 33 14 18 - - 0.0
19/09:30am 2.1 -3.6 0.8 91 0.5 SW 20 32 11 17 - - 0.0
19/09:00am 1.9 -4.9 0.9 93 0.4 SW 26 33 14 18 - - 2.2
19/08:30am 1.1 -6.9 0.2 94 0.4 SW 32 41 17 22 - - 2.2
19/08:00am 1.0 -7.2 0.3 95 0.3 WSW 33 44 18 24 - - 2.2
19/07:30am 0.7 -5.8 0.4 98 0.1 WSW 24 35 13 19 - - 2.2
19/07:00am 0.8 -7.8 0.5 98 0.1 WSW 35 46 19 25 - - 2.2
19/06:30am 0.2 -7.9 -0.1 98 0.1 WSW 32 43 17 23 - - 2.0
19/06:00am 0.6 -8.0 0.3 98 0.1 WSW 35 46 19 25 - - 2.0
19/05:30am 0.5 -7.2 0.2 98 0.1 WSW 30 37 16 20 - - 2.0
19/05:00am 0.6 -8.7 0.3 98 0.1 WSW 39 50 21 27 - - 2.0
19/04:30am 0.7 -9.4 0.4 98 0.1 WSW 43 56 23 30 - - 2.0
19/04:00am 0.9 -9.2 0.6 98 0.1 WSW 43 52 23 28 - - 2.0
19/03:30am 1.0 -10.0 0.7 98 0.1 WSW 48 57 26 31 - - 2.0
19/03:00am 0.9 -11.8 0.6 98 0.1 WSW 57 69 31 37 - - 2.0
19/02:30am 1.1 -10.3 0.7 97 0.2 WSW 50 56 27 30 - - 2.0
19/02:00am 1.0 -9.6 0.6 97 0.2 WSW 46 52 25 28 - - 2.0
19/01:30am 0.8 -11.8 0.4 97 0.2 WSW 56 65 30 35 - - 2.0
19/01:00am 1.2 -9.8 0.6 96 0.2 WSW 48 57 26 31 - - 2.0
19/12:30am 1.1 -10.0 0.2 94 0.4 WSW 48 59 26 32 - - 2.0
19/12:00am 1.4 -11.7 0.4 93 0.4 WSW 59 70 32 38 - - 2.0
 
Date/Time
EDT
Tmp

°C
App
Tmp
°C
Dew
Point
°C
Rel
Hum
%
Delta-T

°C
Wind Press
QNH
hPa
Press
MSL
hPa
Rain
since
9 am
mm
Dir
 
Spd
km/h
Gust
km/h
Spd
kts
Gust
kts
18/11:30pm 1.4 -9.2 0.8 96 0.2 WSW 46 61 25 33 - - 2.0
18/11:27pm 1.5 -8.7 0.9 96 0.2 WSW 44 61 24 33 - - 2.0
18/11:00pm 1.6 -6.5 0.9 95 0.3 WSW 33 43 18 23 - - 2.0
18/10:30pm 1.8 -7.9 0.6 92 0.5 WSW 41 54 22 29 - - 2.0
18/10:00pm 1.9 -10.7 0.3 89 0.6 WSW 56 67 30 36 - - 2.0
18/09:30pm 2.2 -8.7 1.2 93 0.4 WSW 48 57 26 31 - - 2.0
18/09:03pm 2.9 -5.5 1.4 90 0.6 SW 35 54 19 29 - - 2.0
18/09:00pm 2.9 -5.9 1.4 90 0.6 SW 37 50 20 27 - - 2.0
18/08:30pm 3.2 -6.9 1.4 88 0.8 WSW 44 57 24 31 - - 2.0
18/08:00pm 3.6 -8.5 1.2 84 1.0 WSW 54 80 29 43 - - 2.0
18/07:31pm 4.1 -8.4 2.3 88 0.8 WSW 57 78 31 42 - - 2.0
18/07:30pm 4.1 -8.4 2.3 88 0.8 WSW 57 74 31 40 - - 2.0
18/07:02pm 5.7 -5.1 2.2 78 1.5 W 48 74 26 40 - - 2.0
18/07:00pm 5.5 -4.6 3.5 87 0.9 W 46 65 25 35 - - 2.0
18/06:33pm 4.9 -3.5 3.6 91 0.6 W 37 61 20 33 - - 2.0
18/06:30pm 4.9 -3.6 3.2 89 0.8 W 37 52 20 28 - - 2.0
18/06:13pm 5.1 -2.5 3.0 86 0.9 W 32 57 17 31 - - 2.0
18/06:00pm 5.2 -2.5 3.4 88 0.8 W 33 48 18 26 - - 2.0
18/05:50pm 5.4 -2.7 3.4 87 0.9 W 35 56 19 30 - - 2.0
18/05:30pm 5.3 -3.0 4.0 91 0.6 WNW 37 50 20 27 - - 2.0
18/05:00pm 4.8 -4.7 3.9 94 0.4 WNW 43 54 23 29 - - 2.0
18/04:30pm 5.2 -5.3 3.7 90 0.7 WNW 48 63 26 34 - - 2.0
18/04:00pm 5.9 -4.0 4.9 93 0.5 WNW 46 59 25 32 - - 2.0
18/03:33pm 6.2 -2.2 5.6 96 0.3 NW 39 57 21 31 - - 1.6
18/03:30pm 6.0 -3.2 5.4 96 0.3 NW 43 57 23 31 - - 1.6
18/03:15pm 6.4 -2.9 5.2 92 0.6 NW 43 61 23 33 - - 1.0
18/03:00pm 6.7 -2.6 5.2 90 0.7 NNW 43 57 23 31 - - 0.8
18/02:42pm 6.7 -2.2 4.9 88 0.9 NNW 41 72 22 39 - - 0.8
18/02:30pm 7.0 -0.6 5.8 92 0.6 NNW 35 54 19 29 - - 0.8
18/02:00pm 7.6 -0.7 4.2 79 1.6 N 37 57 20 31 - - 0.0
18/01:34pm 7.9 -0.2 3.4 73 2.1 N 35 57 19 31 - - 0.0
18/01:30pm 8.0 0.3 3.3 72 2.2 N 33 48 18 26 - - 0.0
18/01:00pm 8.2 1.3 2.4 67 2.6 N 28 46 15 25 - - 0.0
18/12:42pm 8.7 0.8 2.5 65 2.8 NNW 33 52 18 28 - - 0.0
18/12:30pm 9.6 1.9 3.4 65 2.9 N 33 46 18 25 - - 0.0
18/12:00pm 7.0 1.4 3.4 78 1.6 N 22 33 12 18 - - 0.0
18/11:30am 6.2 0.6 3.7 84 1.1 N 22 32 12 17 - - 0.0
18/11:00am 6.6 1.0 3.4 80 1.5 N 22 28 12 15 - - 0.0
18/10:30am 6.3 -0.1 3.1 80 1.4 NNW 26 37 14 20 - - 0.0
18/10:01am 6.4 -1.4 2.9 78 1.6 NNW 33 54 18 29 - - 0.0
18/10:00am 6.4 -1.2 2.9 78 1.6 NNW 32 46 17 25 - - 0.0
18/09:30am 6.4 -0.9 2.5 76 1.7 NNW 30 50 16 27 - - 0.0
18/09:05am 5.7 -1.2 2.4 79 1.5 NNW 28 48 15 26 - - 0.0
18/09:00am 5.2 -1.3 2.4 82 1.2 NNW 26 43 14 23 - - 0.0
18/08:30am 4.2 -3.3 1.1 80 1.3 NW 30 39 16 21 - - 0.0
18/08:00am 3.8 -4.2 0.5 79 1.4 NW 32 43 17 23 - - 0.0
18/07:30am 3.1 -5.0 -0.2 79 1.3 NW 32 41 17 22 - - 0.0
18/07:00am 3.2 -5.5 -0.4 77 1.4 NW 35 46 19 25 - - 0.0
18/06:30am 2.6 -6.1 -0.7 79 1.3 NW 35 44 19 24 - - 0.0
18/06:00am 3.2 -5.1 -0.6 76 1.5 NW 33 43 18 23 - - 0.0
18/05:30am 3.1 -5.0 0.0 80 1.3 NW 32 39 17 21 - - 0.0
18/05:00am 2.2 -5.2 -0.4 83 1.0 WNW 28 32 15 17 - - 0.0
18/04:30am 2.1 -4.6 -0.8 81 1.1 WNW 24 28 13 15 - - 0.0
18/04:00am 2.8 -5.4 -1.0 76 1.5 NW 32 41 17 22 - - 0.0
18/03:30am 3.1 -6.4 -0.9 75 1.6 NNW 39 46 21 25 - - 0.0
18/03:00am 3.1 -6.1 -1.3 73 1.7 NNW 37 48 20 26 - - 0.0
18/02:30am 3.5 -6.2 -2.4 65 2.3 NNW 39 48 21 26 - - 0.0
18/02:00am 3.2 -6.5 -1.9 69 2.0 NNW 39 46 21 25 - - 0.0
18/01:30am 3.0 -6.2 -1.2 74 1.7 NNW 37 43 20 23 - - 0.0
18/01:00am 3.3 -5.2 -1.6 70 1.9 NNW 33 46 18 25 - - 0.0
18/12:30am 3.4 -4.1 -1.3 71 1.9 NW 28 35 15 19 - - 0.0
18/12:00am 3.1 -2.6 -1.1 74 1.7 NW 19 24 10 13 - - 0.0
 
Date/Time
EDT
Tmp

°C
App
Tmp
°C
Dew
Point
°C
Rel
Hum
%
Delta-T

°C
Wind Press
QNH
hPa
Press
MSL
hPa
Rain
since
9 am
mm
Dir
 
Spd
km/h
Gust
km/h
Spd
kts
Gust
kts
17/11:30pm 3.4 -1.7 -1.7 69 2.0 N 15 17 8 9 - - 0.0
17/11:00pm 3.9 -1.1 -1.1 70 2.0 N 15 20 8 11 - - 0.0
17/10:30pm 4.2 -1.0 0.0 74 1.7 NNW 17 22 9 12 - - 0.0
17/10:00pm 4.0 0.0 0.5 78 1.5 NW 11 17 6 9 - - 0.0
17/09:30pm 4.5 1.4 1.2 79 1.4 N 7 11 4 6 - - 0.0
17/09:00pm 4.2 1.2 1.7 84 1.1 SE 7 9 4 5 - - 0.0
17/08:30pm 5.4 2.2 0.8 72 2.0 SSE 7 11 4 6 - - 0.0
17/08:00pm 5.8 -1.0 -2.0 57 3.1 WNW 24 33 13 18 - - 0.0
17/07:30pm 6.2 -0.2 0.7 68 2.3 WNW 24 30 13 16 - - 0.0
17/07:00pm 5.7 -1.8 1.2 73 1.9 WNW 30 37 16 20 - - 0.0
17/06:30pm 5.6 0.2 1.2 73 1.9 WNW 19 26 10 14 - - 0.0
17/06:00pm 6.5 0.9 0.0 63 2.7 NW 19 28 10 15 - - 0.0

Latest Capital City Observations: Canberra | Sydney | Melbourne | Brisbane | Adelaide | Perth | Hobart | Darwin

Other Formats:

Comma delimited format used in spreadsheet applications
http://www.bom.gov.au/fwo/IDT60901/IDT60901.95979.axf

JavaScript Object Notation format (JSON) in row-major order
http://www.bom.gov.au/fwo/IDT60901/IDT60901.95979.json